sensor_id;sensor_type;location;lat;lon;timestamp;P1;durP1;ratioP1;P2;durP2;ratioP2
1020;SDS011;499;42.648;23.270;2024-01-30T00:01:19;5.35;;;4.45;;
1020;SDS011;499;42.648;23.270;2024-01-30T00:03:53;3.60;;;3.30;;
1020;SDS011;499;42.648;23.270;2024-01-30T00:06:48;5.25;;;3.80;;
1020;SDS011;499;42.648;23.270;2024-01-30T00:09:22;3.85;;;3.35;;
1020;SDS011;499;42.648;23.270;2024-01-30T00:12:14;3.97;;;3.38;;
1020;SDS011;499;42.648;23.270;2024-01-30T00:15:24;5.70;;;3.75;;
1020;SDS011;499;42.648;23.270;2024-01-30T00:18:20;5.25;;;4.75;;
1020;SDS011;499;42.648;23.270;2024-01-30T00:20:55;5.70;;;4.35;;
1020;SDS011;499;42.648;23.270;2024-01-30T00:23:24;8.02;;;5.13;;
1020;SDS011;499;42.648;23.270;2024-01-30T00:26:18;7.40;;;5.13;;
1020;SDS011;499;42.648;23.270;2024-01-30T00:28:47;9.40;;;5.93;;
1020;SDS011;499;42.648;23.270;2024-01-30T00:31:20;8.73;;;5.47;;
1020;SDS011;499;42.648;23.270;2024-01-30T00:33:50;4.93;;;3.85;;
1020;SDS011;499;42.648;23.270;2024-01-30T00:36:19;8.02;;;4.55;;
1020;SDS011;499;42.648;23.270;2024-01-30T00:38:49;5.28;;;4.10;;
1020;SDS011;499;42.648;23.270;2024-01-30T00:41:19;7.25;;;4.20;;
1020;SDS011;499;42.648;23.270;2024-01-30T00:43:50;3.42;;;3.13;;
1020;SDS011;499;42.648;23.270;2024-01-30T00:46:39;12.52;;;6.07;;
1020;SDS011;499;42.648;23.270;2024-01-30T00:49:10;5.88;;;4.45;;
1020;SDS011;499;42.648;23.270;2024-01-30T00:51:42;4.72;;;3.30;;
1020;SDS011;499;42.648;23.270;2024-01-30T00:54:16;5.03;;;4.15;;
1020;SDS011;499;42.648;23.270;2024-01-30T00:56:48;6.13;;;4.03;;
1020;SDS011;499;42.648;23.270;2024-01-30T00:59:19;6.25;;;4.70;;
1020;SDS011;499;42.648;23.270;2024-01-30T01:01:59;6.85;;;4.05;;
1020;SDS011;499;42.648;23.270;2024-01-30T01:04:32;4.57;;;3.50;;
1020;SDS011;499;42.648;23.270;2024-01-30T01:07:02;6.03;;;4.00;;
1020;SDS011;499;42.648;23.270;2024-01-30T01:09:35;6.65;;;4.20;;
1020;SDS011;499;42.648;23.270;2024-01-30T01:12:05;6.72;;;4.72;;
1020;SDS011;499;42.648;23.270;2024-01-30T01:14:38;5.93;;;4.25;;
1020;SDS011;499;42.648;23.270;2024-01-30T01:17:22;7.97;;;5.78;;
1020;SDS011;499;42.648;23.270;2024-01-30T01:20:20;15.10;;;3.88;;
1020;SDS011;499;42.648;23.270;2024-01-30T01:23:08;6.97;;;4.03;;
1020;SDS011;499;42.648;23.270;2024-01-30T01:25:57;6.25;;;4.03;;
1020;SDS011;499;42.648;23.270;2024-01-30T01:28:27;8.35;;;4.85;;
1020;SDS011;499;42.648;23.270;2024-01-30T01:30:57;6.38;;;4.55;;
1020;SDS011;499;42.648;23.270;2024-01-30T01:33:37;5.15;;;3.25;;
1020;SDS011;499;42.648;23.270;2024-01-30T01:36:15;7.20;;;3.67;;
1020;SDS011;499;42.648;23.270;2024-01-30T01:38:54;6.72;;;3.83;;
1020;SDS011;499;42.648;23.270;2024-01-30T01:41:30;9.50;;;5.22;;
1020;SDS011;499;42.648;23.270;2024-01-30T01:44:35;7.88;;;4.95;;
1020;SDS011;499;42.648;23.270;2024-01-30T01:47:07;6.18;;;4.63;;
1020;SDS011;499;42.648;23.270;2024-01-30T01:49:46;6.07;;;3.83;;
1020;SDS011;499;42.648;23.270;2024-01-30T01:52:53;6.05;;;4.28;;
1020;SDS011;499;42.648;23.270;2024-01-30T01:56:06;5.80;;;4.20;;
1020;SDS011;499;42.648;23.270;2024-01-30T01:58:36;8.27;;;4.85;;
1020;SDS011;499;42.648;23.270;2024-01-30T02:04:41;5.35;;;4.32;;
1020;SDS011;499;42.648;23.270;2024-01-30T02:08:24;4.13;;;3.72;;
1020;SDS011;499;42.648;23.270;2024-01-30T02:11:38;5.63;;;4.20;;
1020;SDS011;499;42.648;23.270;2024-01-30T02:15:06;5.03;;;3.55;;
1020;SDS011;499;42.648;23.270;2024-01-30T02:18:11;5.82;;;4.30;;
1020;SDS011;499;42.648;23.270;2024-01-30T02:21:40;3.53;;;3.22;;
1020;SDS011;499;42.648;23.270;2024-01-30T02:24:25;6.07;;;4.70;;
1020;SDS011;499;42.648;23.270;2024-01-30T02:27:39;4.75;;;3.67;;
1020;SDS011;499;42.648;23.270;2024-01-30T02:30:47;3.83;;;3.33;;
1020;SDS011;499;42.648;23.270;2024-01-30T02:33:38;6.72;;;4.00;;
1020;SDS011;499;42.648;23.270;2024-01-30T02:36:41;7.55;;;4.70;;
1020;SDS011;499;42.648;23.270;2024-01-30T02:39:27;6.70;;;4.95;;
1020;SDS011;499;42.648;23.270;2024-01-30T02:42:53;6.20;;;4.65;;
1020;SDS011;499;42.648;23.270;2024-01-30T02:46:00;4.20;;;3.80;;
1020;SDS011;499;42.648;23.270;2024-01-30T02:48:59;3.58;;;3.20;;
1020;SDS011;499;42.648;23.270;2024-01-30T02:52:24;5.68;;;3.83;;
1020;SDS011;499;42.648;23.270;2024-01-30T02:55:14;6.53;;;4.93;;
1020;SDS011;499;42.648;23.270;2024-01-30T02:57:58;3.15;;;2.85;;
1020;SDS011;499;42.648;23.270;2024-01-30T03:01:21;4.20;;;3.80;;
1020;SDS011;499;42.648;23.270;2024-01-30T03:04:15;8.23;;;4.13;;
1020;SDS011;499;42.648;23.270;2024-01-30T03:07:21;5.90;;;3.03;;
1020;SDS011;499;42.648;23.270;2024-01-30T03:10:53;6.93;;;4.15;;
1020;SDS011;499;42.648;23.270;2024-01-30T03:14:21;4.53;;;3.10;;
1020;SDS011;499;42.648;23.270;2024-01-30T03:17:50;5.75;;;4.03;;
1020;SDS011;499;42.648;23.270;2024-01-30T03:21:15;6.53;;;4.25;;
1020;SDS011;499;42.648;23.270;2024-01-30T03:24:00;6.28;;;3.30;;
1020;SDS011;499;42.648;23.270;2024-01-30T03:27:51;6.85;;;3.50;;
1020;SDS011;499;42.648;23.270;2024-01-30T03:31:22;5.68;;;4.47;;
1020;SDS011;499;42.648;23.270;2024-01-30T03:34:38;5.97;;;3.38;;
1020;SDS011;499;42.648;23.270;2024-01-30T03:41:53;4.35;;;3.45;;
1020;SDS011;499;42.648;23.270;2024-01-30T03:48:07;6.75;;;3.75;;
1020;SDS011;499;42.648;23.270;2024-01-30T03:51:03;5.03;;;3.47;;
1020;SDS011;499;42.648;23.270;2024-01-30T03:54:27;4.05;;;3.50;;
1020;SDS011;499;42.648;23.270;2024-01-30T03:57:07;3.80;;;3.45;;
1020;SDS011;499;42.648;23.270;2024-01-30T04:00:50;4.63;;;3.42;;
1020;SDS011;499;42.648;23.270;2024-01-30T04:11:17;3.25;;;2.95;;
1020;SDS011;499;42.648;23.270;2024-01-30T04:14:28;3.17;;;2.88;;
1020;SDS011;499;42.648;23.270;2024-01-30T04:17:25;7.07;;;3.35;;
1020;SDS011;499;42.648;23.270;2024-01-30T04:20:43;8.07;;;4.15;;
1020;SDS011;499;42.648;23.270;2024-01-30T04:23:31;8.88;;;3.50;;
1020;SDS011;499;42.648;23.270;2024-01-30T04:26:10;3.63;;;2.40;;
1020;SDS011;499;42.648;23.270;2024-01-30T04:28:53;5.40;;;4.22;;
1020;SDS011;499;42.648;23.270;2024-01-30T04:31:44;4.68;;;3.22;;
1020;SDS011;499;42.648;23.270;2024-01-30T04:34:43;5.32;;;2.70;;
1020;SDS011;499;42.648;23.270;2024-01-30T04:38:03;3.13;;;2.70;;
1020;SDS011;499;42.648;23.270;2024-01-30T04:48:16;3.13;;;2.80;;
1020;SDS011;499;42.648;23.270;2024-01-30T04:51:44;4.80;;;3.30;;
1020;SDS011;499;42.648;23.270;2024-01-30T04:55:04;6.40;;;4.50;;
1020;SDS011;499;42.648;23.270;2024-01-30T04:57:43;6.88;;;4.60;;
1020;SDS011;499;42.648;23.270;2024-01-30T05:00:34;4.03;;;3.30;;
1020;SDS011;499;42.648;23.270;2024-01-30T05:03:43;6.22;;;4.50;;
1020;SDS011;499;42.648;23.270;2024-01-30T05:06:42;4.53;;;3.45;;
1020;SDS011;499;42.648;23.270;2024-01-30T05:09:51;3.75;;;2.78;;
1020;SDS011;499;42.648;23.270;2024-01-30T05:13:01;3.15;;;2.85;;
1020;SDS011;499;42.648;23.270;2024-01-30T05:15:33;5.57;;;2.75;;
1020;SDS011;499;42.648;23.270;2024-01-30T05:18:05;7.28;;;4.07;;
1020;SDS011;499;42.648;23.270;2024-01-30T05:20:36;7.80;;;3.42;;
1020;SDS011;499;42.648;23.270;2024-01-30T05:23:11;7.35;;;3.50;;
1020;SDS011;499;42.648;23.270;2024-01-30T05:26:23;4.22;;;3.60;;
1020;SDS011;499;42.648;23.270;2024-01-30T05:29:55;4.43;;;3.83;;
1020;SDS011;499;42.648;23.270;2024-01-30T05:32:34;5.47;;;3.63;;
1020;SDS011;499;42.648;23.270;2024-01-30T05:35:33;3.83;;;3.08;;
1020;SDS011;499;42.648;23.270;2024-01-30T05:39:11;4.22;;;3.55;;
1020;SDS011;499;42.648;23.270;2024-01-30T05:42:19;8.27;;;3.95;;
1020;SDS011;499;42.648;23.270;2024-01-30T05:45:46;7.28;;;4.80;;
1020;SDS011;499;42.648;23.270;2024-01-30T05:49:06;6.05;;;3.95;;
1020;SDS011;499;42.648;23.270;2024-01-30T05:52:19;4.97;;;3.53;;
1020;SDS011;499;42.648;23.270;2024-01-30T06:02:26;7.97;;;4.82;;
1020;SDS011;499;42.648;23.270;2024-01-30T06:05:35;7.63;;;4.65;;
1020;SDS011;499;42.648;23.270;2024-01-30T06:08:24;12.18;;;4.35;;
1020;SDS011;499;42.648;23.270;2024-01-30T06:11:13;6.13;;;4.18;;
1020;SDS011;499;42.648;23.270;2024-01-30T06:14:07;7.93;;;5.70;;
1020;SDS011;499;42.648;23.270;2024-01-30T06:16:58;4.55;;;4.03;;
1020;SDS011;499;42.648;23.270;2024-01-30T06:23:21;4.93;;;3.63;;
1020;SDS011;499;42.648;23.270;2024-01-30T06:26:17;7.93;;;4.70;;
1020;SDS011;499;42.648;23.270;2024-01-30T06:29:12;6.85;;;5.93;;
1020;SDS011;499;42.648;23.270;2024-01-30T06:32:18;9.70;;;5.05;;
1020;SDS011;499;42.648;23.270;2024-01-30T06:35:25;5.45;;;4.25;;
1020;SDS011;499;42.648;23.270;2024-01-30T06:38:04;9.43;;;6.40;;
1020;SDS011;499;42.648;23.270;2024-01-30T06:41:02;14.85;;;9.95;;
1020;SDS011;499;42.648;23.270;2024-01-30T06:43:52;14.15;;;9.32;;
1020;SDS011;499;42.648;23.270;2024-01-30T06:46:48;17.73;;;5.18;;
1020;SDS011;499;42.648;23.270;2024-01-30T06:50:16;6.13;;;4.63;;
1020;SDS011;499;42.648;23.270;2024-01-30T07:07:12;5.35;;;3.80;;
1020;SDS011;499;42.648;23.270;2024-01-30T07:09:44;4.85;;;4.43;;
1020;SDS011;499;42.648;23.270;2024-01-30T07:12:23;3.95;;;3.08;;
1020;SDS011;499;42.648;23.270;2024-01-30T07:15:42;2.08;;;1.67;;
1020;SDS011;499;42.648;23.270;2024-01-30T07:18:44;3.45;;;3.15;;
1020;SDS011;499;42.648;23.270;2024-01-30T07:21:57;4.72;;;2.47;;
1020;SDS011;499;42.648;23.270;2024-01-30T07:25:21;2.70;;;2.50;;
1020;SDS011;499;42.648;23.270;2024-01-30T07:28:43;3.47;;;2.40;;
1020;SDS011;499;42.648;23.270;2024-01-30T07:32:02;3.85;;;3.00;;
1020;SDS011;499;42.648;23.270;2024-01-30T07:35:16;1.98;;;1.48;;
1020;SDS011;499;42.648;23.270;2024-01-30T07:38:35;2.42;;;2.17;;
1020;SDS011;499;42.648;23.270;2024-01-30T07:41:45;2.53;;;2.30;;
1020;SDS011;499;42.648;23.270;2024-01-30T07:44:45;2.15;;;1.95;;
1020;SDS011;499;42.648;23.270;2024-01-30T07:48:14;2.03;;;1.85;;
1020;SDS011;499;42.648;23.270;2024-01-30T07:51:42;2.30;;;2.10;;
1020;SDS011;499;42.648;23.270;2024-01-30T07:55:18;5.35;;;4.20;;
1020;SDS011;499;42.648;23.270;2024-01-30T07:59:03;6.35;;;2.45;;
1020;SDS011;499;42.648;23.270;2024-01-30T08:02:12;5.32;;;3.35;;
1020;SDS011;499;42.648;23.270;2024-01-30T08:05:33;1.33;;;1.10;;
1020;SDS011;499;42.648;23.270;2024-01-30T08:08:52;2.58;;;2.38;;
1020;SDS011;499;42.648;23.270;2024-01-30T08:12:00;3.30;;;2.38;;
1020;SDS011;499;42.648;23.270;2024-01-30T08:14:33;2.17;;;1.77;;
1020;SDS011;499;42.648;23.270;2024-01-30T08:17:04;3.55;;;2.85;;
1020;SDS011;499;42.648;23.270;2024-01-30T08:19:36;2.17;;;2.00;;
1020;SDS011;499;42.648;23.270;2024-01-30T08:22:12;1.77;;;1.67;;
1020;SDS011;499;42.648;23.270;2024-01-30T08:24:42;2.50;;;2.28;;
1020;SDS011;499;42.648;23.270;2024-01-30T08:27:42;2.13;;;1.63;;
1020;SDS011;499;42.648;23.270;2024-01-30T08:30:35;2.97;;;2.60;;
1020;SDS011;499;42.648;23.270;2024-01-30T08:34:04;6.43;;;2.78;;
1020;SDS011;499;42.648;23.270;2024-01-30T08:37:25;10.35;;;3.03;;
1020;SDS011;499;42.648;23.270;2024-01-30T08:39:58;3.40;;;2.50;;
1020;SDS011;499;42.648;23.270;2024-01-30T08:43:19;3.85;;;2.63;;
1020;SDS011;499;42.648;23.270;2024-01-30T09:28:24;3.25;;;2.95;;
1020;SDS011;499;42.648;23.270;2024-01-30T09:32:01;4.63;;;4.18;;
1020;SDS011;499;42.648;23.270;2024-01-30T09:35:43;5.38;;;4.30;;
1020;SDS011;499;42.648;23.270;2024-01-30T09:38:46;4.97;;;3.40;;
1020;SDS011;499;42.648;23.270;2024-01-30T09:41:45;5.32;;;3.90;;
1020;SDS011;499;42.648;23.270;2024-01-30T09:48:32;4.90;;;3.20;;
1020;SDS011;499;42.648;23.270;2024-01-30T09:52:22;4.30;;;3.90;;
1020;SDS011;499;42.648;23.270;2024-01-30T09:55:29;6.93;;;4.18;;
1020;SDS011;499;42.648;23.270;2024-01-30T09:58:42;7.43;;;4.47;;
1020;SDS011;499;42.648;23.270;2024-01-30T10:04:49;4.80;;;3.30;;
1020;SDS011;499;42.648;23.270;2024-01-30T10:07:53;4.15;;;2.60;;
1020;SDS011;499;42.648;23.270;2024-01-30T10:10:52;3.45;;;3.05;;
1020;SDS011;499;42.648;23.270;2024-01-30T10:14:08;5.60;;;3.20;;
1020;SDS011;499;42.648;23.270;2024-01-30T10:16:47;6.03;;;4.68;;
1020;SDS011;499;42.648;23.270;2024-01-30T10:19:55;7.60;;;4.82;;
1020;SDS011;499;42.648;23.270;2024-01-30T10:23:16;4.30;;;3.42;;
1020;SDS011;499;42.648;23.270;2024-01-30T10:26:17;4.15;;;3.15;;
1020;SDS011;499;42.648;23.270;2024-01-30T10:29:15;5.97;;;4.32;;
1020;SDS011;499;42.648;23.270;2024-01-30T10:32:22;4.75;;;3.55;;
1020;SDS011;499;42.648;23.270;2024-01-30T10:35:32;5.45;;;3.90;;
1020;SDS011;499;42.648;23.270;2024-01-30T10:38:45;7.53;;;2.95;;
1020;SDS011;499;42.648;23.270;2024-01-30T10:41:14;8.53;;;4.03;;
1020;SDS011;499;42.648;23.270;2024-01-30T10:43:54;5.63;;;3.88;;
1020;SDS011;499;42.648;23.270;2024-01-30T10:47:12;4.43;;;3.30;;
1020;SDS011;499;42.648;23.270;2024-01-30T10:50:21;4.50;;;3.28;;
1020;SDS011;499;42.648;23.270;2024-01-30T10:52:58;3.30;;;2.75;;
1020;SDS011;499;42.648;23.270;2024-01-30T10:55:58;5.63;;;3.65;;
1020;SDS011;499;42.648;23.270;2024-01-30T10:59:09;3.50;;;2.88;;
1020;SDS011;499;42.648;23.270;2024-01-30T11:02:24;4.57;;;3.53;;
1020;SDS011;499;42.648;23.270;2024-01-30T11:12:52;4.60;;;3.50;;
1020;SDS011;499;42.648;23.270;2024-01-30T11:15:47;3.87;;;3.50;;
1020;SDS011;499;42.648;23.270;2024-01-30T11:19:32;6.07;;;3.60;;
1020;SDS011;499;42.648;23.270;2024-01-30T11:22:46;5.00;;;3.03;;
1020;SDS011;499;42.648;23.270;2024-01-30T11:25:25;7.80;;;3.13;;
1020;SDS011;499;42.648;23.270;2024-01-30T11:28:12;3.63;;;3.20;;
1020;SDS011;499;42.648;23.270;2024-01-30T11:30:45;4.82;;;3.70;;
1020;SDS011;499;42.648;23.270;2024-01-30T11:34:06;4.57;;;3.55;;
1020;SDS011;499;42.648;23.270;2024-01-30T11:37:28;4.82;;;3.55;;
1020;SDS011;499;42.648;23.270;2024-01-30T11:40:38;4.90;;;3.50;;
1020;SDS011;499;42.648;23.270;2024-01-30T11:43:35;3.40;;;2.90;;
1020;SDS011;499;42.648;23.270;2024-01-30T11:46:12;4.63;;;3.30;;
1020;SDS011;499;42.648;23.270;2024-01-30T11:49:16;5.27;;;2.60;;
1020;SDS011;499;42.648;23.270;2024-01-30T11:52:36;5.80;;;3.27;;
1020;SDS011;499;42.648;23.270;2024-01-30T11:56:01;4.43;;;3.30;;
1020;SDS011;499;42.648;23.270;2024-01-30T12:02:35;5.43;;;3.43;;
1020;SDS011;499;42.648;23.270;2024-01-30T12:05:39;3.65;;;2.83;;
1020;SDS011;499;42.648;23.270;2024-01-30T12:08:57;3.50;;;3.20;;
1020;SDS011;499;42.648;23.270;2024-01-30T12:12:11;3.50;;;3.10;;
1020;SDS011;499;42.648;23.270;2024-01-30T12:15:52;4.18;;;3.78;;
1020;SDS011;499;42.648;23.270;2024-01-30T12:19:06;4.57;;;3.88;;
1020;SDS011;499;42.648;23.270;2024-01-30T12:22:32;4.65;;;3.42;;
1020;SDS011;499;42.648;23.270;2024-01-30T12:25:42;2.83;;;2.60;;
1020;SDS011;499;42.648;23.270;2024-01-30T12:29:00;5.38;;;3.70;;
1020;SDS011;499;42.648;23.270;2024-01-30T12:42:38;5.25;;;3.63;;
1020;SDS011;499;42.648;23.270;2024-01-30T12:49:43;16.60;;;3.33;;
1020;SDS011;499;42.648;23.270;2024-01-30T12:52:57;2.83;;;2.50;;
1020;SDS011;499;42.648;23.270;2024-01-30T12:56:19;3.60;;;3.23;;
1020;SDS011;499;42.648;23.270;2024-01-30T13:02:40;4.15;;;3.13;;
1020;SDS011;499;42.648;23.270;2024-01-30T13:05:19;4.95;;;3.35;;
1020;SDS011;499;42.648;23.270;2024-01-30T13:08:46;3.80;;;3.30;;
1020;SDS011;499;42.648;23.270;2024-01-30T13:11:33;3.58;;;2.92;;
1020;SDS011;499;42.648;23.270;2024-01-30T13:18:13;9.10;;;4.87;;
1020;SDS011;499;42.648;23.270;2024-01-30T13:21:34;3.20;;;2.90;;
1020;SDS011;499;42.648;23.270;2024-01-30T13:24:18;4.73;;;3.60;;
1020;SDS011;499;42.648;23.270;2024-01-30T13:27:26;4.35;;;3.20;;
1020;SDS011;499;42.648;23.270;2024-01-30T13:30:45;4.30;;;2.77;;
1020;SDS011;499;42.648;23.270;2024-01-30T13:33:16;4.33;;;3.70;;
1020;SDS011;499;42.648;23.270;2024-01-30T13:39:46;5.32;;;3.10;;
1020;SDS011;499;42.648;23.270;2024-01-30T13:42:52;4.50;;;4.03;;
1020;SDS011;499;42.648;23.270;2024-01-30T13:46:43;5.20;;;4.10;;
1020;SDS011;499;42.648;23.270;2024-01-30T13:49:42;3.97;;;3.25;;
1020;SDS011;499;42.648;23.270;2024-01-30T13:52:56;4.57;;;3.60;;
1020;SDS011;499;42.648;23.270;2024-01-30T13:56:09;3.70;;;3.30;;
1020;SDS011;499;42.648;23.270;2024-01-30T14:02:57;4.00;;;3.60;;
1020;SDS011;499;42.648;23.270;2024-01-30T14:06:03;4.70;;;4.15;;
1020;SDS011;499;42.648;23.270;2024-01-30T14:09:40;3.85;;;3.15;;
1020;SDS011;499;42.648;23.270;2024-01-30T14:12:58;4.32;;;3.47;;
1020;SDS011;499;42.648;23.270;2024-01-30T14:16:05;3.65;;;3.17;;
1020;SDS011;499;42.648;23.270;2024-01-30T14:22:17;5.82;;;4.75;;
1020;SDS011;499;42.648;23.270;2024-01-30T14:25:17;6.57;;;4.32;;
1020;SDS011;499;42.648;23.270;2024-01-30T14:28:12;6.50;;;4.20;;
1020;SDS011;499;42.648;23.270;2024-01-30T14:31:32;4.13;;;3.22;;
1020;SDS011;499;42.648;23.270;2024-01-30T14:34:30;5.50;;;3.65;;
1020;SDS011;499;42.648;23.270;2024-01-30T14:37:22;4.85;;;3.53;;
1020;SDS011;499;42.648;23.270;2024-01-30T14:40:31;9.00;;;4.18;;
1020;SDS011;499;42.648;23.270;2024-01-30T14:43:53;3.60;;;2.80;;
1020;SDS011;499;42.648;23.270;2024-01-30T14:47:20;5.10;;;3.70;;
1020;SDS011;499;42.648;23.270;2024-01-30T14:53:55;7.20;;;5.35;;
1020;SDS011;499;42.648;23.270;2024-01-30T14:56:32;6.97;;;5.57;;
1020;SDS011;499;42.648;23.270;2024-01-30T14:59:32;7.55;;;4.97;;
1020;SDS011;499;42.648;23.270;2024-01-30T15:02:35;15.77;;;9.05;;
1020;SDS011;499;42.648;23.270;2024-01-30T15:05:51;16.70;;;9.93;;
1020;SDS011;499;42.648;23.270;2024-01-30T15:08:35;12.10;;;7.47;;
1020;SDS011;499;42.648;23.270;2024-01-30T15:11:43;10.52;;;7.07;;
1020;SDS011;499;42.648;23.270;2024-01-30T15:14:54;10.82;;;7.97;;
1020;SDS011;499;42.648;23.270;2024-01-30T15:17:30;10.00;;;6.90;;
1020;SDS011;499;42.648;23.270;2024-01-30T15:20:25;9.18;;;7.55;;
1020;SDS011;499;42.648;23.270;2024-01-30T15:23:24;11.77;;;6.82;;
1020;SDS011;499;42.648;23.270;2024-01-30T15:26:50;12.77;;;6.78;;
1020;SDS011;499;42.648;23.270;2024-01-30T15:30:00;8.07;;;5.80;;
1020;SDS011;499;42.648;23.270;2024-01-30T15:33:05;8.88;;;5.88;;
1020;SDS011;499;42.648;23.270;2024-01-30T15:36:18;11.48;;;7.63;;
1020;SDS011;499;42.648;23.270;2024-01-30T15:39:19;11.43;;;7.82;;
1020;SDS011;499;42.648;23.270;2024-01-30T15:42:05;11.57;;;6.70;;
1020;SDS011;499;42.648;23.270;2024-01-30T15:44:51;8.20;;;6.70;;
1020;SDS011;499;42.648;23.270;2024-01-30T15:47:41;8.13;;;5.85;;
1020;SDS011;499;42.648;23.270;2024-01-30T15:50:46;8.10;;;6.05;;
1020;SDS011;499;42.648;23.270;2024-01-30T15:53:44;7.30;;;5.68;;
1020;SDS011;499;42.648;23.270;2024-01-30T16:00:04;28.73;;;14.57;;
1020;SDS011;499;42.648;23.270;2024-01-30T16:03:26;21.17;;;13.98;;
1020;SDS011;499;42.648;23.270;2024-01-30T16:06:56;19.88;;;12.60;;
1020;SDS011;499;42.648;23.270;2024-01-30T16:10:14;20.00;;;13.85;;
1020;SDS011;499;42.648;23.270;2024-01-30T16:16:01;45.17;;;26.48;;
1020;SDS011;499;42.648;23.270;2024-01-30T16:18:56;43.75;;;26.15;;
1020;SDS011;499;42.648;23.270;2024-01-30T16:21:54;42.17;;;25.70;;
1020;SDS011;499;42.648;23.270;2024-01-30T16:24:55;36.15;;;24.55;;
1020;SDS011;499;42.648;23.270;2024-01-30T16:32:07;20.45;;;14.77;;
1020;SDS011;499;42.648;23.270;2024-01-30T16:35:06;16.90;;;9.25;;
1020;SDS011;499;42.648;23.270;2024-01-30T16:37:56;15.60;;;9.68;;
1020;SDS011;499;42.648;23.270;2024-01-30T16:41:02;32.40;;;14.20;;
1020;SDS011;499;42.648;23.270;2024-01-30T16:43:57;33.92;;;16.48;;
1020;SDS011;499;42.648;23.270;2024-01-30T16:47:17;26.65;;;17.23;;
1020;SDS011;499;42.648;23.270;2024-01-30T16:50:11;25.73;;;16.05;;
1020;SDS011;499;42.648;23.270;2024-01-30T16:53:41;25.83;;;17.10;;
1020;SDS011;499;42.648;23.270;2024-01-30T16:56:18;15.77;;;11.10;;
1020;SDS011;499;42.648;23.270;2024-01-30T16:58:55;12.82;;;8.45;;
1020;SDS011;499;42.648;23.270;2024-01-30T17:01:36;9.30;;;6.82;;
1020;SDS011;499;42.648;23.270;2024-01-30T17:09:01;15.18;;;10.27;;
1020;SDS011;499;42.648;23.270;2024-01-30T17:11:47;8.90;;;7.28;;
1020;SDS011;499;42.648;23.270;2024-01-30T17:15:01;16.85;;;10.45;;
1020;SDS011;499;42.648;23.270;2024-01-30T17:18:19;21.27;;;15.75;;
1020;SDS011;499;42.648;23.270;2024-01-30T17:21:35;43.53;;;29.27;;
1020;SDS011;499;42.648;23.270;2024-01-30T17:27:38;5.38;;;4.88;;
1020;SDS011;499;42.648;23.270;2024-01-30T17:31:13;7.65;;;6.22;;
1020;SDS011;499;42.648;23.270;2024-01-30T17:34:34;7.07;;;5.25;;
1020;SDS011;499;42.648;23.270;2024-01-30T17:37:57;6.43;;;4.78;;
1020;SDS011;499;42.648;23.270;2024-01-30T17:44:23;5.13;;;4.43;;
1020;SDS011;499;42.648;23.270;2024-01-30T17:47:41;5.68;;;5.05;;
1020;SDS011;499;42.648;23.270;2024-01-30T17:51:12;53.28;;;27.60;;
1020;SDS011;499;42.648;23.270;2024-01-30T17:54:23;79.72;;;38.70;;
1020;SDS011;499;42.648;23.270;2024-01-30T18:01:51;10.57;;;6.45;;
1020;SDS011;499;42.648;23.270;2024-01-30T18:04:50;14.68;;;7.50;;
1020;SDS011;499;42.648;23.270;2024-01-30T18:07:23;7.72;;;6.70;;
1020;SDS011;499;42.648;23.270;2024-01-30T18:10:52;9.30;;;7.50;;
1020;SDS011;499;42.648;23.270;2024-01-30T18:14:47;14.32;;;7.88;;
1020;SDS011;499;42.648;23.270;2024-01-30T18:25:37;19.15;;;11.73;;
1020;SDS011;499;42.648;23.270;2024-01-30T18:28:13;14.00;;;10.18;;
1020;SDS011;499;42.648;23.270;2024-01-30T18:30:52;10.63;;;8.90;;
1020;SDS011;499;42.648;23.270;2024-01-30T18:34:53;13.13;;;8.63;;
1020;SDS011;499;42.648;23.270;2024-01-30T18:38:28;8.75;;;7.80;;
1020;SDS011;499;42.648;23.270;2024-01-30T18:45:14;6.18;;;5.53;;
1020;SDS011;499;42.648;23.270;2024-01-30T18:47:56;10.18;;;7.43;;
1020;SDS011;499;42.648;23.270;2024-01-30T18:51:27;10.75;;;7.20;;
1020;SDS011;499;42.648;23.270;2024-01-30T18:55:06;83.85;;;43.33;;
1020;SDS011;499;42.648;23.270;2024-01-30T18:57:48;44.10;;;25.48;;
1020;SDS011;499;42.648;23.270;2024-01-30T19:12:15;16.10;;;10.05;;
1020;SDS011;499;42.648;23.270;2024-01-30T19:15:48;39.15;;;22.05;;
1020;SDS011;499;42.648;23.270;2024-01-30T19:19:01;85.28;;;44.17;;
1020;SDS011;499;42.648;23.270;2024-01-30T19:22:00;58.70;;;35.85;;
1020;SDS011;499;42.648;23.270;2024-01-30T19:36:07;82.60;;;36.70;;
1020;SDS011;499;42.648;23.270;2024-01-30T19:39:13;51.53;;;27.38;;
1020;SDS011;499;42.648;23.270;2024-01-30T19:42:58;39.95;;;22.70;;
1020;SDS011;499;42.648;23.270;2024-01-30T19:46:37;16.33;;;12.40;;
1020;SDS011;499;42.648;23.270;2024-01-30T19:49:29;22.80;;;10.43;;
1020;SDS011;499;42.648;23.270;2024-01-30T19:55:42;11.63;;;9.30;;
1020;SDS011;499;42.648;23.270;2024-01-30T19:59:12;21.90;;;12.93;;
1020;SDS011;499;42.648;23.270;2024-01-30T20:06:02;15.57;;;9.25;;
1020;SDS011;499;42.648;23.270;2024-01-30T20:13:06;5.75;;;4.70;;
1020;SDS011;499;42.648;23.270;2024-01-30T20:16:06;12.10;;;6.38;;
1020;SDS011;499;42.648;23.270;2024-01-30T20:19:51;6.90;;;6.18;;
1020;SDS011;499;42.648;23.270;2024-01-30T20:23:25;8.45;;;7.20;;
1020;SDS011;499;42.648;23.270;2024-01-30T20:26:31;6.57;;;5.97;;
1020;SDS011;499;42.648;23.270;2024-01-30T20:29:44;9.20;;;8.32;;
1020;SDS011;499;42.648;23.270;2024-01-30T20:32:53;15.73;;;14.25;;
1020;SDS011;499;42.648;23.270;2024-01-30T20:36:26;15.38;;;13.77;;
1020;SDS011;499;42.648;23.270;2024-01-30T20:39:33;8.48;;;6.82;;
1020;SDS011;499;42.648;23.270;2024-01-30T20:59:55;7.93;;;5.00;;
1020;SDS011;499;42.648;23.270;2024-01-30T21:02:28;5.70;;;5.20;;
1020;SDS011;499;42.648;23.270;2024-01-30T21:05:15;7.10;;;5.38;;
1020;SDS011;499;42.648;23.270;2024-01-30T21:08:17;5.40;;;4.90;;
1020;SDS011;499;42.648;23.270;2024-01-30T21:11:14;4.35;;;3.95;;
1020;SDS011;499;42.648;23.270;2024-01-30T21:14:11;4.65;;;4.25;;
1020;SDS011;499;42.648;23.270;2024-01-30T21:17:19;5.60;;;4.60;;
1020;SDS011;499;42.648;23.270;2024-01-30T21:20:20;4.60;;;4.18;;
1020;SDS011;499;42.648;23.270;2024-01-30T21:23:40;5.65;;;4.25;;
1020;SDS011;499;42.648;23.270;2024-01-30T21:26:49;4.10;;;3.72;;
1020;SDS011;499;42.648;23.270;2024-01-30T21:33:05;4.25;;;3.75;;
1020;SDS011;499;42.648;23.270;2024-01-30T21:36:10;10.85;;;6.55;;
1020;SDS011;499;42.648;23.270;2024-01-30T21:39:06;11.85;;;6.13;;
1020;SDS011;499;42.648;23.270;2024-01-30T21:42:05;7.85;;;6.57;;
1020;SDS011;499;42.648;23.270;2024-01-30T21:45:13;5.10;;;4.60;;
1020;SDS011;499;42.648;23.270;2024-01-30T21:48:47;4.13;;;3.72;;
1020;SDS011;499;42.648;23.270;2024-01-30T21:52:01;5.82;;;5.30;;
1020;SDS011;499;42.648;23.270;2024-01-30T21:54:51;11.85;;;8.07;;
1020;SDS011;499;42.648;23.270;2024-01-30T21:57:45;3.95;;;3.28;;
1020;SDS011;499;42.648;23.270;2024-01-30T22:01:02;4.80;;;4.03;;
1020;SDS011;499;42.648;23.270;2024-01-30T22:04:09;4.72;;;4.22;;
1020;SDS011;499;42.648;23.270;2024-01-30T22:07:07;7.43;;;6.70;;
1020;SDS011;499;42.648;23.270;2024-01-30T22:10:01;4.88;;;4.28;;
1020;SDS011;499;42.648;23.270;2024-01-30T22:13:05;4.38;;;3.95;;
1020;SDS011;499;42.648;23.270;2024-01-30T22:15:50;5.22;;;4.80;;
1020;SDS011;499;42.648;23.270;2024-01-30T22:18:41;6.20;;;5.00;;
1020;SDS011;499;42.648;23.270;2024-01-30T22:24:59;4.82;;;3.97;;
1020;SDS011;499;42.648;23.270;2024-01-30T22:27:47;3.60;;;3.30;;
1020;SDS011;499;42.648;23.270;2024-01-30T22:30:34;3.42;;;3.15;;
1020;SDS011;499;42.648;23.270;2024-01-30T22:33:07;3.30;;;3.00;;
1020;SDS011;499;42.648;23.270;2024-01-30T22:36:19;3.72;;;3.40;;
1020;SDS011;499;42.648;23.270;2024-01-30T22:39:21;4.28;;;3.88;;
1020;SDS011;499;42.648;23.270;2024-01-30T22:49:26;4.82;;;4.10;;
1020;SDS011;499;42.648;23.270;2024-01-30T22:52:12;3.47;;;3.15;;
1020;SDS011;499;42.648;23.270;2024-01-30T22:55:29;3.97;;;3.60;;
1020;SDS011;499;42.648;23.270;2024-01-30T22:58:13;4.72;;;3.20;;